createdAt,value
2022-10-03T00:02:10.869Z,0.88
2022-10-03T00:07:34.088Z,0.68
2022-10-03T00:10:18.357Z,0.88
2022-10-03T00:13:03.445Z,1.35
2022-10-03T00:15:40.505Z,1.63
2022-10-03T00:18:25.205Z,0.93
2022-10-03T00:21:22.235Z,1.25
2022-10-03T00:24:02.422Z,0.88
2022-10-03T00:26:46.595Z,1.40
2022-10-03T00:32:05.035Z,1.40
2022-10-03T00:34:49.979Z,1.38
2022-10-03T00:37:33.100Z,1.75
2022-10-03T00:40:32.814Z,2.22
2022-10-03T00:43:38.880Z,1.25
2022-10-03T00:46:30.028Z,1.27
2022-10-03T00:49:24.104Z,1.38
2022-10-03T00:52:05.276Z,1.67
2022-10-03T00:54:55.258Z,1.65
2022-10-03T00:57:40.602Z,2.15
2022-10-03T01:00:22.906Z,1.55
2022-10-03T01:03:22.627Z,1.50
2022-10-03T01:06:04.726Z,1.63
2022-10-03T01:08:51.365Z,1.63
2022-10-03T01:11:37.230Z,1.23
2022-10-03T01:14:22.507Z,1.20
2022-10-03T01:17:04.843Z,2.33
2022-10-03T01:20:00.514Z,1.90
2022-10-03T01:22:59.249Z,1.50
2022-10-03T01:25:42.725Z,1.77
2022-10-03T01:28:55.062Z,1.80
2022-10-03T01:31:31.606Z,1.33
2022-10-03T01:34:10.374Z,1.52
2022-10-03T01:36:49.992Z,1.77
2022-10-03T01:39:35.143Z,1.50
2022-10-03T01:42:13.368Z,1.50
2022-10-03T01:45:00.224Z,1.48
2022-10-03T01:47:38.598Z,1.35
2022-10-03T01:50:17.486Z,1.65
2022-10-03T01:52:55.334Z,1.45
2022-10-03T01:55:33.387Z,1.33
2022-10-03T01:58:09.330Z,1.33
2022-10-03T02:00:47.831Z,1.70
2022-10-03T02:03:25.454Z,1.73
2022-10-03T02:06:06.858Z,2.45
2022-10-03T02:08:50.019Z,2.03
2022-10-03T02:11:33.449Z,2.80
2022-10-03T02:14:24.534Z,1.67
2022-10-03T02:17:05.514Z,1.75
2022-10-03T02:19:45.927Z,1.90
2022-10-03T02:22:31.559Z,1.75
2022-10-03T02:25:15.888Z,1.77
2022-10-03T02:28:16.451Z,1.42
2022-10-03T02:31:04.510Z,1.77
2022-10-03T02:34:09.980Z,1.45
2022-10-03T02:37:02.655Z,1.52
2022-10-03T02:40:02.847Z,1.33
2022-10-03T02:43:09.001Z,1.77
2022-10-03T02:46:09.216Z,1.75
2022-10-03T02:49:01.612Z,1.58
2022-10-03T02:51:53.759Z,1.38
2022-10-03T02:54:51.949Z,1.67
2022-10-03T02:58:03.712Z,1.58
2022-10-03T03:00:53.427Z,1.40
2022-10-03T03:03:43.425Z,1.58
2022-10-03T03:06:35.878Z,1.85
2022-10-03T03:09:36.645Z,2.92
2022-10-03T03:12:40.495Z,1.80
2022-10-03T03:15:38.930Z,1.80
2022-10-03T03:18:15.775Z,1.67
2022-10-03T03:21:03.280Z,1.52
2022-10-03T03:23:55.337Z,1.73
2022-10-03T03:26:48.652Z,1.40
2022-10-03T03:29:29.298Z,1.80
2022-10-03T03:32:09.393Z,1.95
2022-10-03T03:34:49.496Z,2.25
2022-10-03T03:37:26.345Z,1.88
2022-10-03T03:40:15.888Z,1.55
2022-10-03T03:43:01.524Z,2.15
2022-10-03T03:45:52.545Z,2.20
2022-10-03T03:48:39.840Z,1.65
2022-10-03T03:51:23.918Z,2.55
2022-10-03T03:54:10.650Z,2.13
2022-10-03T03:57:01.498Z,2.25
2022-10-03T04:02:30.934Z,2.53
2022-10-03T04:05:15.224Z,1.90
2022-10-03T04:08:01.890Z,2.35
2022-10-03T04:10:46.222Z,2.58
2022-10-03T04:16:45.601Z,2.35
2022-10-03T04:19:26.251Z,2.50
2022-10-03T04:22:21.433Z,2.20
2022-10-03T04:25:17.369Z,1.65
2022-10-03T04:28:17.017Z,2.03
2022-10-03T04:31:02.716Z,3.60
2022-10-03T04:33:43.425Z,2.47
2022-10-03T04:36:43.205Z,2.72
2022-10-03T04:39:29.355Z,3.15
2022-10-03T04:42:06.708Z,2.58
2022-10-03T04:44:50.021Z,2.35
2022-10-03T04:47:29.463Z,2.47
2022-10-03T04:50:06.881Z,2.35
2022-10-03T04:52:44.352Z,1.95
2022-10-03T04:55:27.655Z,2.33
2022-10-03T04:58:05.353Z,3.15
2022-10-03T05:00:43.447Z,2.67
2022-10-03T05:03:25.181Z,2.45
2022-10-03T05:06:00.259Z,3.35
2022-10-03T05:08:38.884Z,4.13
2022-10-03T05:11:19.096Z,3.45
2022-10-03T05:14:03.762Z,2.85
2022-10-03T05:16:42.357Z,2.58
2022-10-03T05:19:41.749Z,2.67
2022-10-03T05:22:33.329Z,2.78
2022-10-03T05:25:17.550Z,2.70
2022-10-03T05:27:54.596Z,2.42
2022-10-03T05:30:36.684Z,2.88
2022-10-03T05:33:14.471Z,2.88
2022-10-03T05:39:04.850Z,4.68
2022-10-03T05:41:36.569Z,7.00
2022-10-03T05:44:11.797Z,5.93
2022-10-03T05:47:00.650Z,5.00
2022-10-03T05:50:11.659Z,4.30
2022-10-03T05:53:04.926Z,4.45
2022-10-03T05:55:52.434Z,4.05
2022-10-03T05:59:00.336Z,4.40
2022-10-03T06:02:01.413Z,4.28
2022-10-03T06:05:00.777Z,7.53
2022-10-03T06:07:35.859Z,4.47
2022-10-03T06:10:46.831Z,4.22
2022-10-03T06:13:24.324Z,3.80
2022-10-03T06:16:02.177Z,3.67
2022-10-03T06:19:07.472Z,4.20
2022-10-03T06:22:05.165Z,3.58
2022-10-03T06:25:10.887Z,3.35
2022-10-03T06:28:18.500Z,3.38
2022-10-03T06:31:37.817Z,3.92
2022-10-03T06:34:38.295Z,3.50
2022-10-03T06:37:41.091Z,3.35
2022-10-03T06:40:57.450Z,3.70
2022-10-03T06:43:49.314Z,3.65
2022-10-03T06:46:56.099Z,3.72
2022-10-03T06:49:45.944Z,3.40
2022-10-03T06:52:39.248Z,4.22
2022-10-03T06:55:50.328Z,3.88
2022-10-03T06:59:01.917Z,3.30
2022-10-03T07:02:08.489Z,3.85
2022-10-03T07:05:17.242Z,4.35
2022-10-03T07:08:23.118Z,4.20
2022-10-03T07:11:17.226Z,3.90
2022-10-03T07:14:16.947Z,3.83
2022-10-03T07:17:17.701Z,4.05
2022-10-03T07:20:08.679Z,3.90
2022-10-03T07:23:06.338Z,4.10
2022-10-03T07:26:17.931Z,4.22
2022-10-03T07:29:25.979Z,5.65
2022-10-03T07:32:19.279Z,6.72
2022-10-03T07:35:47.530Z,7.43
2022-10-03T07:38:59.872Z,5.97
2022-10-03T07:41:52.537Z,6.05
2022-10-03T07:44:56.212Z,9.05
2022-10-03T07:47:56.060Z,6.95
2022-10-03T07:50:59.737Z,5.88
2022-10-03T07:53:59.385Z,5.78
2022-10-03T07:56:53.015Z,6.53
2022-10-03T08:00:01.502Z,7.78
2022-10-03T08:03:08.071Z,6.28
2022-10-03T08:05:50.686Z,6.35
2022-10-03T08:08:40.814Z,6.55
2022-10-03T08:11:34.087Z,6.10
2022-10-03T08:14:20.891Z,6.40
2022-10-03T08:17:32.362Z,7.38
2022-10-03T08:20:25.676Z,7.97
2022-10-03T08:23:10.727Z,6.00
2022-10-03T08:25:57.390Z,6.03
2022-10-03T08:28:54.184Z,15.82
2022-10-03T08:31:52.755Z,8.73
2022-10-03T08:35:01.796Z,6.65
2022-10-03T08:38:05.615Z,7.55
2022-10-03T08:41:08.232Z,7.03
2022-10-03T08:46:56.094Z,6.88
2022-10-03T08:50:05.256Z,7.13
2022-10-03T08:52:51.647Z,7.05
2022-10-03T08:55:45.646Z,7.97
